Time;durP1;ratioP1;P1;durP2;ratioP2;P2;SDS_P1;SDS_P2;PMS_P1;PMS_P2;Temp;Humidity;BMP_temperature;BMP_pressure;BME280_temperature;BME280_humidity;BME280_pressure;Samples;Min_cycle;Max_cycle;Signal;HPM_P1;HPM_P2
2023/07/24 00:00:58;;;;;;;25.45;13.82;;;;;;;-142.57;42.91;115900.28;6244299;23;20028;-86
2023/07/24 00:03:24;;;;;;;26.17;13.80;;;;;;;-142.57;43.03;115900.28;6244412;23;20007;-86
2023/07/24 00:05:50;;;;;;;24.60;13.10;;;;;;;-142.57;42.80;115900.28;6244067;23;19997;-85
2023/07/24 00:08:16;;;;;;;23.70;12.55;;;;;;;-142.57;42.96;115900.28;6244003;23;20008;-87
2023/07/24 00:10:42;;;;;;;25.48;13.55;;;;;;;-142.57;42.88;115900.28;6244368;23;20000;-87
2023/07/24 00:13:07;;;;;;;28.00;14.27;;;;;;;-142.57;43.05;115900.28;6244058;23;20028;-87
2023/07/24 00:15:34;;;;;;;24.35;13.20;;;;;;;-142.57;44.38;115900.28;6242138;23;20111;-87
2023/07/24 00:18:00;;;;;;;24.08;14.05;;;;;;;-142.57;44.98;115900.28;6239089;23;20008;-86
2023/07/24 00:20:26;;;;;;;26.48;13.93;;;;;;;-142.57;45.50;115900.28;6238157;23;20015;-86
2023/07/24 00:22:51;;;;;;;24.38;13.75;;;;;;;-142.57;45.33;115900.28;6235199;23;20514;-86
2023/07/24 00:25:17;;;;;;;23.02;13.15;;;;;;;-142.57;45.25;115900.28;6235308;23;20020;-88
2023/07/24 00:27:45;;;;;;;29.75;14.32;;;;;;;-142.57;45.17;115900.28;6209054;23;20008;-87
2023/07/24 00:30:12;;;;;;;24.25;13.15;;;;;;;-142.57;45.09;115900.28;6234342;23;20013;-86
2023/07/24 00:32:37;;;;;;;24.48;12.18;;;;;;;-142.57;45.35;115900.28;6232143;23;20031;-87
2023/07/24 00:35:03;;;;;;;25.33;13.23;;;;;;;-142.57;45.56;115900.28;6230212;23;20344;-87
2023/07/24 00:37:29;;;;;;;25.23;12.80;;;;;;;-142.57;45.56;115900.28;6230874;23;20016;-86
2023/07/24 00:39:55;;;;;;;28.42;14.10;;;;;;;-142.57;46.11;115900.28;6229696;23;20015;-87
2023/07/24 00:42:21;;;;;;;25.58;12.98;;;;;;;-142.57;45.88;115900.28;6228950;23;20013;-86
2023/07/24 00:45:09;;;;;;;26.05;13.82;;;;;;;-142.57;45.58;115900.28;6205199;23;20430;-87
2023/07/24 00:47:37;;;;;;;25.63;14.25;;;;;;;-142.57;45.35;115900.28;6208789;23;20040;-87
2023/07/24 00:50:04;;;;;;;27.50;13.48;;;;;;;-142.57;45.52;115900.28;6235722;23;20025;-87
2023/07/24 00:52:30;;;;;;;25.48;13.77;;;;;;;-142.57;45.55;115900.28;6242565;23;20012;-86
2023/07/24 00:54:56;;;;;;;22.33;12.85;;;;;;;-142.57;45.03;115900.28;6243246;23;20007;-85
2023/07/24 00:57:23;;;;;;;23.52;13.73;;;;;;;-142.57;44.68;115900.28;6209219;23;20009;-86
2023/07/24 00:59:49;;;;;;;24.83;13.10;;;;;;;-142.57;43.91;115900.28;6231674;23;20005;-86
2023/07/24 01:02:16;;;;;;;24.95;13.55;;;;;;;-142.57;43.65;115900.28;6229780;23;20017;-87
2023/07/24 01:04:42;;;;;;;27.65;12.90;;;;;;;-142.57;43.46;115900.28;6227891;23;20005;-86
2023/07/24 01:07:08;;;;;;;22.33;12.65;;;;;;;-142.57;43.04;115900.28;6227925;23;20013;-85
2023/07/24 01:09:34;;;;;;;26.42;13.93;;;;;;;-142.57;43.50;115900.28;6226915;23;20008;-84
2023/07/24 01:12:10;;;;;;;26.02;13.68;;;;;;;-142.57;43.65;115900.28;6227658;23;20012;-87
2023/07/24 01:14:44;;;;;;;25.38;12.90;;;;;;;-142.57;43.73;115900.28;6228286;23;20016;-86
2023/07/24 01:17:19;;;;;;;22.92;12.48;;;;;;;-142.57;43.42;115900.28;6229277;23;20011;-87
2023/07/24 01:19:50;;;;;;;26.80;12.57;;;;;;;-142.57;43.18;115900.28;6229181;23;20096;-87
2023/07/24 01:22:28;;;;;;;24.05;11.52;;;;;;;-142.57;44.16;115900.28;6230626;23;20068;-86
2023/07/24 01:24:59;;;;;;;23.27;12.75;;;;;;;-142.57;44.63;115900.28;6230090;23;20024;-86
2023/07/24 01:27:26;;;;;;;25.75;12.68;;;;;;;-142.57;45.01;115900.28;6202529;23;20051;-86
2023/07/24 01:29:53;;;;;;;22.42;12.38;;;;;;;-142.57;44.39;115900.28;6201441;23;20024;-84
2023/07/24 01:32:20;;;;;;;20.75;11.93;;;;;;;-142.57;44.21;115900.28;6224568;23;20013;-85
2023/07/24 01:34:50;;;;;;;27.40;12.15;;;;;;;-142.57;43.71;115900.28;6224690;23;20008;-87
2023/07/24 01:37:16;;;;;;;25.17;12.15;;;;;;;-142.57;44.26;115900.28;6225141;23;20016;-86
2023/07/24 01:39:44;;;;;;;21.02;12.30;;;;;;;-142.57;44.14;115900.28;6200209;23;20017;-86
2023/07/24 01:42:10;;;;;;;23.85;12.57;;;;;;;-142.57;43.77;115900.28;6200591;23;20104;-88
2023/07/24 01:44:39;;;;;;;22.73;12.48;;;;;;;-142.57;44.25;115900.28;6224578;23;20607;-86
2023/07/24 01:47:04;;;;;;;23.65;13.63;;;;;;;-142.57;44.54;115900.28;6226548;23;20001;-85
2023/07/24 01:49:30;;;;;;;22.83;12.52;;;;;;;-142.57;44.31;115900.28;6226974;23;20016;-85
2023/07/24 01:51:57;;;;;;;24.83;12.98;;;;;;;-142.57;45.25;115900.28;6230947;23;20009;-87
2023/07/24 01:54:23;;;;;;;25.73;13.45;;;;;;;-142.57;45.18;115900.28;6228201;23;20197;-87
2023/07/24 01:56:48;;;;;;;26.65;12.50;;;;;;;-142.57;45.73;115900.28;6231236;23;20127;-85
2023/07/24 01:59:15;;;;;;;22.52;12.88;;;;;;;-142.57;45.85;115900.28;6229435;23;20043;-85
2023/07/24 02:01:41;;;;;;;24.92;12.73;;;;;;;-142.57;46.55;115900.28;6202592;23;20012;-83
2023/07/24 02:04:07;;;;;;;26.65;12.98;;;;;;;-142.57;46.58;115900.28;6226918;23;20044;-85
2023/07/24 02:06:33;;;;;;;23.60;12.77;;;;;;;-142.57;46.33;115900.28;6228172;23;20009;-86
2023/07/24 02:08:59;;;;;;;26.98;12.82;;;;;;;-142.57;46.26;115900.28;6227020;23;20012;-86
2023/07/24 02:11:24;;;;;;;27.75;13.40;;;;;;;-142.57;46.67;115900.28;6228095;23;20005;-84
2023/07/24 02:13:57;;;;;;;24.30;13.85;;;;;;;-142.57;46.62;115900.28;6226332;23;20013;-87
2023/07/24 02:16:22;;;;;;;26.00;13.63;;;;;;;-142.57;46.52;115900.28;6200715;23;20072;-87
2023/07/24 02:18:48;;;;;;;26.92;13.75;;;;;;;-142.57;46.71;115900.28;6226822;23;20009;-86
2023/07/24 02:21:13;;;;;;;23.77;12.77;;;;;;;-142.57;47.19;115900.28;6227728;23;20028;-86
2023/07/24 02:23:39;;;;;;;21.65;12.40;;;;;;;-142.57;47.68;115900.28;6229090;23;20052;-86
2023/07/24 02:26:05;;;;;;;25.70;13.48;;;;;;;-142.57;47.87;115900.28;6227484;23;20009;-86
2023/07/24 02:28:33;;;;;;;27.55;13.45;;;;;;;-142.57;47.75;115900.28;6202031;23;20051;-85
2023/07/24 02:31:00;;;;;;;24.48;13.85;;;;;;;-142.57;48.13;115900.28;6202793;23;20016;-86
2023/07/24 02:33:25;;;;;;;27.20;15.25;;;;;;;-142.57;48.06;115900.28;6229504;23;20111;-86
2023/07/24 02:35:52;;;;;;;24.88;13.25;;;;;;;-142.57;48.61;115900.28;6202878;23;20420;-87
2023/07/24 02:38:19;;;;;;;24.02;12.57;;;;;;;-142.57;48.89;115900.28;6230900;23;20024;-86
2023/07/24 02:40:51;;;;;;;27.50;13.93;;;;;;;-142.57;48.92;115900.28;6233294;23;20008;-86
2023/07/24 02:43:17;;;;;;;24.73;12.15;;;;;;;-142.57;49.38;115900.28;6182334;23;20016;-84
2023/07/24 02:45:48;;;;;;;24.02;12.93;;;;;;;-142.57;49.47;115900.28;6233728;23;20009;-87
2023/07/24 02:48:17;;;;;;;26.73;13.53;;;;;;;-142.57;49.23;115900.28;6206606;23;20023;-85
2023/07/24 02:50:43;;;;;;;26.50;12.32;;;;;;;-142.57;49.49;115900.28;6208395;23;20009;-86
2023/07/24 02:53:15;;;;;;;24.10;13.20;;;;;;;-142.57;49.54;115900.28;6209122;23;20043;-86
2023/07/24 02:55:50;;;;;;;25.67;13.15;;;;;;;-142.57;50.11;115900.28;6236745;23;20063;-85
2023/07/24 02:58:18;;;;;;;25.60;13.18;;;;;;;-142.57;49.63;115900.28;6209679;23;20012;-87
2023/07/24 03:00:44;;;;;;;29.05;14.02;;;;;;;-142.57;49.04;115900.28;6186423;23;19993;-87
2023/07/24 03:03:15;;;;;;;29.80;12.68;;;;;;;-142.57;49.03;115900.28;6237282;23;20004;-85
2023/07/24 03:05:59;;;;;;;23.90;12.65;;;;;;;-142.57;48.66;115900.28;6235605;23;20064;-86
2023/07/24 03:08:28;;;;;;;23.63;11.52;;;;;;;-142.57;48.06;115900.28;6185273;23;20028;-86
2023/07/24 03:10:54;;;;;;;23.00;11.80;;;;;;;-142.57;47.24;115900.28;6235637;23;20005;-87
2023/07/24 03:13:35;;;;;;;22.27;11.45;;;;;;;-142.57;47.58;115900.28;6232541;23;20020;-88
2023/07/24 03:16:01;;;;;;;22.98;11.63;;;;;;;-142.57;47.94;115900.28;6207595;23;20009;-88
2023/07/24 03:18:33;;;;;;;21.38;11.32;;;;;;;-142.57;47.81;115900.28;6206234;23;20027;-87
2023/07/24 03:20:59;;;;;;;24.80;11.45;;;;;;;-142.57;48.40;115900.28;6230054;23;20016;-87
2023/07/24 03:23:27;;;;;;;22.25;11.95;;;;;;;-142.57;48.38;115900.28;6231307;23;20509;-86
2023/07/24 03:25:53;;;;;;;22.73;11.25;;;;;;;-142.57;48.44;115900.28;6231140;23;20066;-87
2023/07/24 03:28:19;;;;;;;21.27;10.95;;;;;;;-142.57;48.32;115900.28;6230085;23;20000;-86
2023/07/24 03:30:44;;;;;;;22.30;11.15;;;;;;;-142.57;48.07;115900.28;6229803;23;20016;-86
2023/07/24 03:33:12;;;;;;;22.70;11.23;;;;;;;-142.57;48.47;115900.28;6230298;23;20008;-87
2023/07/24 03:35:39;;;;;;;21.58;10.75;;;;;;;-142.57;48.30;115900.28;6203014;23;20028;-86
2023/07/24 03:38:05;;;;;;;21.45;11.13;;;;;;;-142.57;48.21;115900.28;6231651;23;20039;-86
2023/07/24 03:40:32;;;;;;;23.02;11.32;;;;;;;-142.57;48.56;115900.28;6227945;23;20000;-87
2023/07/24 03:42:57;;;;;;;23.02;10.70;;;;;;;-142.57;48.72;115900.28;6196962;23;20560;-84
2023/07/24 03:45:23;;;;;;;21.77;10.95;;;;;;;-142.57;48.78;115900.28;6198137;23;20040;-86
2023/07/24 03:47:52;;;;;;;20.80;10.80;;;;;;;-142.57;48.99;115900.28;6199312;23;20017;-86
2023/07/24 03:50:17;;;;;;;18.65;10.65;;;;;;;-142.57;49.04;115900.28;6221494;23;20027;-85
2023/07/24 03:52:43;;;;;;;23.08;10.95;;;;;;;-142.57;49.04;115900.28;6223167;23;20005;-86
2023/07/24 03:55:09;;;;;;;21.77;11.13;;;;;;;-142.57;49.50;115900.28;6224110;23;20344;-87
2023/07/24 03:57:35;;;;;;;22.33;11.15;;;;;;;-142.57;49.58;115900.28;6225693;23;20083;-86
2023/07/24 04:00:01;;;;;;;23.23;11.00;;;;;;;-142.57;49.19;115900.28;6228398;23;20005;-86
2023/07/24 04:02:39;;;;;;;28.50;11.60;;;;;;;-142.57;49.57;115900.28;6223004;23;20501;-86
2023/07/24 04:05:05;;;;;;;23.25;10.65;;;;;;;-142.57;49.88;115900.28;6225196;23;20513;-86
2023/07/24 04:07:31;;;;;;;22.58;10.82;;;;;;;-142.57;50.00;115900.28;6206189;23;20004;-88
2023/07/24 04:09:57;;;;;;;22.00;11.63;;;;;;;-142.57;49.60;115900.28;6202671;23;20012;-86
2023/07/24 04:12:31;;;;;;;22.75;11.32;;;;;;;-142.57;49.98;115900.28;6237921;23;20017;-87
2023/07/24 04:15:22;;;;;;;25.13;10.65;;;;;;;-142.57;49.72;115900.28;6243356;23;20077;-88
2023/07/24 04:18:17;;;;;;;28.25;11.32;;;;;;;-142.57;50.04;115900.28;6223235;23;20017;-89
2023/07/24 04:26:13;;;;;;;28.10;11.98;;;;;;;-142.57;50.90;115900.28;6297715;22;20071;-89
2023/07/24 04:31:57;;;;;;;36.20;12.43;;;;;;;-142.57;51.04;115900.28;6246405;23;20035;-76
2023/07/24 04:34:23;;;;;;;28.42;12.80;;;;;;;-142.57;51.24;115900.28;6245367;23;20008;-77
2023/07/24 04:36:48;;;;;;;27.15;12.25;;;;;;;-142.57;51.55;115900.28;6218704;23;20016;-77
2023/07/24 04:39:21;;;;;;;;;;;;;;;-142.57;51.59;115900.28;6246778;23;20007;-77
2023/07/24 04:41:46;;;;;;;27.63;11.52;;;;;;;-142.57;51.68;115900.28;6246234;23;20261;-77
2023/07/24 04:44:12;;;;;;;24.48;11.52;;;;;;;-142.57;52.31;115900.28;6246988;23;20537;-85
2023/07/24 04:46:37;;;;;;;29.40;11.98;;;;;;;-142.57;52.69;115900.28;6225211;23;20008;-79
2023/07/24 04:49:03;;;;;;;28.08;11.88;;;;;;;-142.57;54.80;115900.28;6250071;23;20012;-81
2023/07/24 04:51:28;;;;;;;22.45;11.75;;;;;;;-142.57;57.89;115900.28;6251897;23;20035;-84
2023/07/24 04:57:22;;;;;;;31.17;13.88;;;;;;;-142.57;60.01;115900.28;6273042;22;20012;-82
2023/07/24 04:59:48;;;;;;;33.42;13.02;;;;;;;-142.57;58.91;115900.28;6267861;23;20025;-84
2023/07/24 05:02:13;;;;;;;33.53;13.48;;;;;;;-142.57;57.77;115900.28;6247847;23;20481;-83
2023/07/24 05:04:39;;;;;;;25.48;12.27;;;;;;;-142.57;58.13;115900.28;6221060;23;20004;-85
2023/07/24 05:07:04;;;;;;;25.60;13.25;;;;;;;-142.57;56.02;115900.28;6250000;23;20004;-81
2023/07/24 05:09:30;;;;;;;31.50;12.60;;;;;;;-142.57;56.02;115900.28;6247040;23;21305;-82
2023/07/24 05:11:55;;;;;;;29.95;13.82;;;;;;;-142.57;57.38;115900.28;6247303;23;20001;-84
2023/07/24 05:14:24;;;;;;;28.20;13.55;;;;;;;-142.57;58.68;115900.28;6248129;23;20094;-86
2023/07/24 05:16:50;;;;;;;29.05;14.70;;;;;;;-142.57;58.62;115900.28;6252511;23;20007;-85
2023/07/24 05:19:15;;;;;;;33.33;14.70;;;;;;;-142.57;58.81;115900.28;6249286;23;20008;-80
2023/07/24 05:21:47;;;;;;;45.13;14.70;;;;;;;-142.57;59.54;115900.28;6224646;23;20032;-84
2023/07/24 05:24:13;;;;;;;26.50;14.48;;;;;;;-142.57;59.62;115900.28;6249319;23;20503;-84
2023/07/24 05:26:38;;;;;;;34.65;15.63;;;;;;;-142.57;59.71;115900.28;6251198;23;20015;-86
2023/07/24 05:29:06;;;;;;;29.75;15.15;;;;;;;-142.57;58.87;115900.28;6252317;23;20008;-87
2023/07/24 05:31:35;;;;;;;38.58;16.27;;;;;;;-142.57;59.77;115900.28;6252872;23;20106;-86
2023/07/24 05:34:01;;;;;;;31.30;17.13;;;;;;;-142.57;60.02;115900.28;6264088;23;20008;-86
2023/07/24 05:36:29;;;;;;;32.60;15.40;;;;;;;-142.57;59.87;115900.28;6264796;23;20035;-85
2023/07/24 05:38:56;;;;;;;35.72;16.63;;;;;;;-142.57;60.28;115900.28;6235649;23;20100;-80
2023/07/24 05:41:24;;;;;;;32.63;16.60;;;;;;;-142.57;60.47;115900.28;6264929;23;20000;-81
2023/07/24 05:43:53;;;;;;;37.30;17.27;;;;;;;-142.57;62.08;115900.28;6267270;23;20019;-78
2023/07/24 05:46:18;;;;;;;37.83;16.98;;;;;;;-142.57;62.70;115900.28;6268204;23;20012;-79
2023/07/24 05:48:44;;;;;;;33.25;15.60;;;;;;;-142.57;62.70;115900.28;6269311;23;20079;-79
2023/07/24 05:51:12;;;;;;;32.80;15.63;;;;;;;-142.57;63.32;115900.28;6266129;23;20439;-79
2023/07/24 05:53:38;;;;;;;34.25;17.30;;;;;;;-142.57;62.26;115900.28;6238223;23;20015;-81
2023/07/24 05:56:03;;;;;;;35.70;18.30;;;;;;;-142.57;63.00;115900.28;6260696;23;20008;-81
2023/07/24 05:58:30;;;;;;;41.35;18.10;;;;;;;-142.57;63.77;115900.28;6250241;23;20020;-82
2023/07/24 06:00:55;;;;;;;34.55;17.25;;;;;;;-142.57;63.91;115900.28;6249331;23;20016;-83
2023/07/24 06:03:24;;;;;;;45.45;22.95;;;;;;;-142.57;63.64;115900.28;6248867;23;20019;-80
2023/07/24 06:05:54;;;;;;;42.88;17.42;;;;;;;-142.57;63.52;115900.28;6247184;23;20442;-82
2023/07/24 06:08:20;;;;;;;36.15;17.42;;;;;;;-142.57;64.61;115900.28;6247827;23;20091;-83
2023/07/24 06:10:50;;;;;;;36.42;16.70;;;;;;;-142.57;64.77;115900.28;6249374;23;20427;-89
2023/07/24 06:13:17;;;;;;;38.42;17.83;;;;;;;-142.57;65.45;115900.28;6219389;23;20019;-87
2023/07/24 06:15:43;;;;;;;37.38;17.05;;;;;;;-142.57;65.32;115900.28;6246368;23;20094;-81
2023/07/24 06:18:10;;;;;;;44.38;18.85;;;;;;;-142.57;67.68;115900.28;6246900;23;20012;-85
2023/07/24 06:20:36;;;;;;;38.03;18.92;;;;;;;-142.57;66.87;115900.28;6246672;23;20007;-81
2023/07/24 06:23:03;;;;;;;31.25;17.33;;;;;;;-142.57;67.61;115900.28;6247247;23;20459;-81
2023/07/24 06:25:31;;;;;;;39.90;19.33;;;;;;;-142.57;69.53;115900.28;6221817;23;20113;-82
2023/07/24 06:27:57;;;;;;;35.67;17.55;;;;;;;-142.57;70.89;115900.28;6222346;23;20008;-80
2023/07/24 06:45:10;;;;;;;43.90;18.50;;;;;;;-142.57;69.56;115900.28;6018989;23;20087;-84
2023/07/24 06:47:36;;;;;;;35.17;17.40;;;;;;;-142.57;68.70;115900.28;6042536;23;20445;-87
2023/07/24 06:50:02;;;;;;;46.97;17.55;;;;;;;-142.57;68.41;115900.28;6078133;23;20513;-84
2023/07/24 06:52:38;;;;;;;38.00;17.63;;;;;;;-142.57;66.93;115900.28;6181496;23;20046;-81
2023/07/24 06:55:04;;;;;;;40.67;18.08;;;;;;;-142.57;66.78;115900.28;6250450;23;20035;-87
2023/07/24 06:57:30;;;;;;;38.17;16.92;;;;;;;-142.57;67.13;115900.28;6251356;23;20071;-83
2023/07/24 06:59:55;;;;;;;39.80;17.30;;;;;;;-142.57;66.07;115900.28;6250374;23;20016;-82
2023/07/24 07:02:21;;;;;;;29.38;16.55;;;;;;;-142.57;65.76;115900.28;6223962;23;20015;-86
2023/07/24 07:04:47;;;;;;;40.88;16.67;;;;;;;-142.57;64.50;115900.28;6224150;23;20008;-83
2023/07/24 07:07:15;;;;;;;36.53;15.80;;;;;;;-142.57;64.08;115900.28;6249790;23;20008;-91
2023/07/24 07:09:40;;;;;;;46.10;16.52;;;;;;;-142.57;62.98;115900.28;6250466;23;20004;-84
2023/07/24 07:12:06;;;;;;;44.45;16.40;;;;;;;-142.57;62.30;115900.28;6250353;23;20077;-88
2023/07/24 07:14:50;;;;;;;40.17;16.98;;;;;;;-142.57;62.39;115900.28;6227951;23;20081;-84
2023/07/24 07:17:16;;;;;;;36.58;16.70;;;;;;;-142.57;62.54;115900.28;6198219;23;20012;-91
2023/07/24 07:19:42;;;;;;;50.05;17.17;;;;;;;-142.57;61.64;115900.28;6197737;23;20008;-85
2023/07/24 07:22:07;;;;;;;33.13;16.52;;;;;;;-142.57;60.68;115900.28;6249325;23;20070;-90
2023/07/24 07:24:33;;;;;;;37.88;15.27;;;;;;;-142.57;59.32;115900.28;6251665;23;20038;-89
2023/07/24 07:27:01;;;;;;;33.55;16.55;;;;;;;-142.57;53.95;115900.28;6251615;23;20022;-90
2023/07/24 07:29:26;;;;;;;28.98;15.57;;;;;;;-142.57;52.19;115900.28;6252200;23;20431;-92
2023/07/24 07:31:52;;;;;;;34.10;15.73;;;;;;;-142.57;48.45;115900.28;6253572;23;20008;-90
2023/07/24 07:34:24;;;;;;;34.70;15.02;;;;;;;-142.57;46.64;115900.28;6227054;23;20020;-92
2023/07/24 07:36:50;;;;;;;31.88;15.32;;;;;;;-142.57;48.06;115900.28;6210772;23;20464;-90
2023/07/24 07:39:15;;;;;;;42.65;15.65;;;;;;;-142.57;48.47;115900.28;6258832;23;20008;-90
2023/07/24 07:41:41;;;;;;;37.65;17.25;;;;;;;-142.57;46.26;115900.28;6256214;23;20072;-90
2023/07/24 07:44:08;;;;;;;35.17;15.68;;;;;;;-142.57;43.54;115900.28;6249291;23;20085;-89
2023/07/24 07:46:34;;;;;;;31.75;16.23;;;;;;;-142.57;43.84;115900.28;6252645;23;20091;-91
2023/07/24 07:48:59;;;;;;;32.55;15.20;;;;;;;-142.57;43.79;115900.28;6227664;23;20089;-86
2023/07/24 07:51:26;;;;;;;40.13;17.38;;;;;;;-142.57;44.12;115900.28;6251913;23;20430;-87
2023/07/24 07:53:59;;;;;;;30.33;16.33;;;;;;;-142.57;42.89;115900.28;6229618;23;20072;-91
2023/07/24 07:56:46;;;;;;;31.58;15.10;;;;;;;-142.57;41.20;115900.28;6209223;23;20023;-92
2023/07/24 07:59:16;;;;;;;29.83;15.45;;;;;;;-142.57;41.46;115900.28;6245099;22;20023;-90
2023/07/24 08:01:45;;;;;;;34.92;15.35;;;;;;;-142.57;41.09;115900.28;6229551;23;20011;-89
2023/07/24 08:04:11;;;;;;;34.28;14.75;;;;;;;-142.57;40.18;115900.28;6225750;23;20012;-91
2023/07/24 08:06:37;;;;;;;28.17;14.60;;;;;;;-142.57;38.62;115900.28;6230623;23;20013;-91
2023/07/24 08:09:02;;;;;;;32.70;14.98;;;;;;;-142.57;38.45;115900.28;6228218;23;20021;-91
2023/07/24 08:11:31;;;;;;;33.17;14.82;;;;;;;-142.57;38.77;115900.28;6224925;23;20009;-91
2023/07/24 08:14:00;;;;;;;33.10;16.05;;;;;;;-142.57;37.08;115900.28;6224626;23;20095;-91
2023/07/24 08:16:25;;;;;;;36.10;14.98;;;;;;;-142.57;36.92;115900.28;6229690;23;20012;-91
2023/07/24 08:18:51;;;;;;;36.50;14.75;;;;;;;-142.57;36.12;115900.28;6232091;23;20016;-89
2023/07/24 08:21:17;;;;;;;30.95;15.52;;;;;;;-142.57;35.84;115900.28;6230671;23;20008;-91
2023/07/24 08:23:42;;;;;;;41.08;15.35;;;;;;;-142.57;35.67;115900.28;6231700;23;20009;-90
2023/07/24 08:26:08;;;;;;;53.88;16.25;;;;;;;-142.57;35.53;115900.28;6229521;23;20064;-91
2023/07/24 08:28:49;;;;;;;40.95;15.63;;;;;;;-142.57;35.70;115900.28;6235960;23;20003;-92
2023/07/24 08:31:17;;;;;;;54.70;15.63;;;;;;;-142.57;35.37;115900.28;6242299;23;20004;-91
2023/07/24 08:33:45;;;;;;;32.78;15.65;;;;;;;-142.57;33.81;115900.28;6243345;23;20085;-93
2023/07/24 08:36:12;;;;;;;61.15;16.48;;;;;;;-142.57;35.43;115900.28;6242930;23;20009;-90
2023/07/24 08:38:39;;;;;;;37.88;14.77;;;;;;;-142.57;35.55;115900.28;6241742;23;19993;-91
2023/07/24 08:41:27;;;;;;;44.13;17.20;;;;;;;-142.57;38.15;115900.28;6236642;23;20016;-90
2023/07/24 08:44:13;;;;;;;28.25;16.00;;;;;;;-142.57;38.62;115900.28;6226881;23;20031;-89
2023/07/24 08:46:41;;;;;;;32.45;14.50;;;;;;;-142.57;39.01;115900.28;6230414;23;20015;-92
2023/07/24 08:49:11;;;;;;;30.80;15.23;;;;;;;-142.57;39.47;115900.28;6177929;23;20016;-90
2023/07/24 08:51:37;;;;;;;42.08;16.05;;;;;;;-142.57;39.41;115900.28;6226506;23;20463;-90
2023/07/24 08:54:07;;;;;;;46.50;15.90;;;;;;;-142.57;40.59;115900.28;6222420;23;20009;-90
2023/07/24 08:56:36;;;;;;;58.88;16.48;;;;;;;-142.57;41.69;115900.28;6228560;23;20102;-90
2023/07/24 08:59:05;;;;;;;29.80;15.05;;;;;;;-142.57;42.36;115900.28;6227443;23;20016;-91
2023/07/24 09:01:31;;;;;;;44.85;17.00;;;;;;;-142.57;45.83;115900.28;6231019;23;20066;-90
2023/07/24 09:03:57;;;;;;;73.50;17.83;;;;;;;-142.57;46.79;115900.28;6223896;23;20376;-91
2023/07/24 09:06:23;;;;;;;108.07;21.92;;;;;;;-142.57;48.81;115900.28;6225326;23;20027;-92
2023/07/24 09:09:02;;;;;;;49.28;18.00;;;;;;;-142.57;55.55;115900.28;6230761;23;20000;-93
2023/07/24 09:11:31;;;;;;;43.33;16.65;;;;;;;-142.57;56.50;115900.28;6230244;22;20063;-91
2023/07/24 09:13:57;;;;;;;41.67;15.77;;;;;;;-142.57;53.64;115900.28;6230017;23;20434;-88
2023/07/24 09:16:26;;;;;;;36.17;15.82;;;;;;;-142.57;53.53;115900.28;6253983;23;20000;-92
2023/07/24 09:18:57;;;;;;;37.90;17.02;;;;;;;-142.57;57.11;115900.28;6204521;23;20004;-92
2023/07/24 09:21:30;;;;;;;33.63;16.60;;;;;;;-142.57;59.88;115900.28;6253529;23;20008;-91
2023/07/24 09:23:55;;;;;;;87.90;19.55;;;;;;;-142.57;61.63;115900.28;6227902;23;20083;-91
2023/07/24 09:26:21;;;;;;;102.63;21.08;;;;;;;-142.57;60.64;115900.28;6254577;23;20008;-89
2023/07/24 09:28:55;;;;;;;38.58;17.05;;;;;;;-142.57;64.41;115900.28;6250539;23;20000;-89
2023/07/24 09:31:20;;;;;;;36.25;17.85;;;;;;;-142.57;65.52;115900.28;6249064;23;20008;-88
2023/07/24 09:33:46;;;;;;;48.22;18.48;;;;;;;-142.57;63.01;115900.28;6249439;23;20016;-87
2023/07/24 09:36:12;;;;;;;42.17;18.90;;;;;;;-142.57;62.62;115900.28;6253135;23;20015;-86
2023/07/24 09:38:43;;;;;;;28.95;17.30;;;;;;;-142.57;63.16;115900.28;6256908;23;20008;-85
2023/07/24 09:41:08;;;;;;;43.30;18.05;;;;;;;-142.57;61.31;115900.28;6227132;23;20008;-86
2023/07/24 09:43:37;;;;;;;39.95;16.45;;;;;;;-142.57;60.88;115900.28;6249844;23;20016;-87
2023/07/24 09:46:08;;;;;;;53.67;18.33;;;;;;;-142.57;65.31;115900.28;6247900;23;20314;-84
2023/07/24 09:48:34;;;;;;;46.20;20.77;;;;;;;-142.57;64.98;115900.28;6246784;23;20012;-86
2023/07/24 09:51:00;;;;;;;60.20;19.48;;;;;;;-142.57;65.46;115900.28;6248525;23;20004;-85
2023/07/24 09:53:40;;;;;;;46.05;19.77;;;;;;;-142.57;69.63;115900.28;6264745;23;20034;-87
2023/07/24 09:56:08;;;;;;;43.30;20.05;;;;;;;-142.57;71.54;115900.28;6223906;23;20016;-82
2023/07/24 09:58:38;;;;;;;44.00;19.00;;;;;;;-142.57;70.57;115900.28;6246126;23;20008;-84
2023/07/24 10:01:08;;;;;;;46.20;18.75;;;;;;;-142.57;68.18;115900.28;6246548;23;20016;-86
2023/07/24 10:03:35;;;;;;;37.13;18.23;;;;;;;-142.57;63.72;115900.28;6245442;23;20039;-83
2023/07/24 10:06:02;;;;;;;37.42;18.30;;;;;;;-142.57;61.83;115900.28;6193204;23;20020;-90
2023/07/24 10:08:28;;;;;;;42.72;16.85;;;;;;;-142.57;65.35;115900.28;6247018;23;20004;-85
2023/07/24 10:10:53;;;;;;;35.17;17.17;;;;;;;-142.57;64.77;115900.28;6240501;23;20380;-85
2023/07/24 10:13:21;;;;;;;39.40;18.48;;;;;;;-142.57;65.79;115900.28;6245077;23;20020;-85
2023/07/24 10:15:48;;;;;;;38.70;18.23;;;;;;;-142.57;64.11;115900.28;6218595;23;20012;-86
2023/07/24 10:18:16;;;;;;;37.35;18.27;;;;;;;-142.57;66.77;115900.28;6247058;23;20000;-89
2023/07/24 10:20:42;;;;;;;40.88;19.42;;;;;;;-142.57;67.97;115900.28;6224843;23;20019;-90
2023/07/24 10:23:10;;;;;;;37.03;19.45;;;;;;;-142.57;69.41;115900.28;6227380;23;20024;-90
2023/07/24 10:26:12;;;;;;;38.15;19.65;;;;;;;-142.57;70.36;115900.28;6261425;23;20017;-90
2023/07/24 10:28:41;;;;;;;39.20;18.58;;;;;;;-142.57;68.74;115900.28;6233329;23;20016;-91
2023/07/24 10:31:19;;;;;;;39.42;20.75;;;;;;;-142.57;65.81;115900.28;6262956;23;20018;-88
2023/07/24 10:33:45;;;;;;;42.30;21.15;;;;;;;-142.57;66.04;115900.28;6248823;23;20032;-88
2023/07/24 10:36:13;;;;;;;49.15;24.42;;;;;;;-142.57;68.81;115900.28;6251843;23;20071;-91
2023/07/24 10:38:43;;;;;;;42.67;23.27;;;;;;;-142.57;66.53;115900.28;6249636;23;20466;-89
2023/07/24 10:41:11;;;;;;;46.08;23.35;;;;;;;-142.57;68.47;115900.28;6231198;23;20008;-88
2023/07/24 10:43:47;;;;;;;39.88;19.65;;;;;;;-142.57;68.03;115900.28;6259672;23;20428;-92
2023/07/24 10:46:14;;;;;;;43.78;24.33;;;;;;;-142.57;69.15;115900.28;6256116;23;20012;-90
2023/07/24 10:48:44;;;;;;;44.60;23.75;;;;;;;-142.57;69.62;115900.28;6227564;23;20004;-90
2023/07/24 10:51:14;;;;;;;34.97;20.52;;;;;;;-142.57;68.76;115900.28;6254299;23;20004;-88
2023/07/24 10:53:49;;;;;;;38.63;20.88;;;;;;;-142.57;68.43;115900.28;6199927;23;20012;-89
2023/07/24 10:56:16;;;;;;;41.45;22.17;;;;;;;-142.57;66.66;115900.28;6220448;23;20023;-89
2023/07/24 10:58:42;;;;;;;47.88;24.25;;;;;;;-142.57;66.36;115900.28;6248317;23;20123;-89
2023/07/24 11:01:10;;;;;;;45.75;23.27;;;;;;;-142.57;66.68;115900.28;6221303;23;20054;-88
2023/07/24 11:03:39;;;;;;;40.80;24.60;;;;;;;-142.57;68.45;115900.28;6220857;23;20323;-89
2023/07/24 11:06:05;;;;;;;38.83;21.40;;;;;;;-142.57;66.50;115900.28;6221588;23;20008;-88
2023/07/24 11:08:31;;;;;;;40.75;21.73;;;;;;;-142.57;66.60;115900.28;6247003;23;20036;-90
2023/07/24 11:10:58;;;;;;;36.67;20.48;;;;;;;-142.57;66.52;115900.28;6255621;23;20004;-90
2023/07/24 11:13:25;;;;;;;36.03;20.13;;;;;;;-142.57;65.88;115900.28;6227921;23;20020;-89
2023/07/24 11:15:52;;;;;;;37.97;21.77;;;;;;;-142.57;65.54;115900.28;6250359;23;20066;-89
2023/07/24 11:18:21;;;;;;;35.38;20.02;;;;;;;-142.57;66.13;115900.28;6249371;23;20012;-89
2023/07/24 11:20:54;;;;;;;42.22;23.50;;;;;;;-142.57;65.47;115900.28;6228348;23;20012;-88
2023/07/24 11:23:20;;;;;;;41.47;24.35;;;;;;;-142.57;64.08;115900.28;6253320;23;20016;-90
2023/07/24 11:25:46;;;;;;;34.47;19.13;;;;;;;-142.57;61.06;115900.28;6252750;23;20331;-88